sensor_id;sensor_type;location;lat;lon;timestamp;pressure;altitude;pressure_sealevel;temperature;humidity
63715;BME280;49858;48.956;9.076;2023-02-22T00:01:40;98677.81;;;9.00;100.00
63715;BME280;49858;48.956;9.076;2023-02-22T00:04:17;98681.22;;;9.09;100.00
63715;BME280;49858;48.956;9.076;2023-02-22T00:06:48;98679.81;;;8.38;100.00
63715;BME280;49858;48.956;9.076;2023-02-22T00:09:16;98680.72;;;7.52;100.00
63715;BME280;49858;48.956;9.076;2023-02-22T00:11:47;98677.69;;;8.23;100.00
63715;BME280;49858;48.956;9.076;2023-02-22T00:14:15;98671.31;;;8.31;100.00
63715;BME280;49858;48.956;9.076;2023-02-22T00:16:45;98667.38;;;7.83;100.00
63715;BME280;49858;48.956;9.076;2023-02-22T00:19:14;98664.44;;;7.55;100.00
63715;BME280;49858;48.956;9.076;2023-02-22T00:21:41;98660.69;;;7.27;100.00
63715;BME280;49858;48.956;9.076;2023-02-22T00:24:11;98661.94;;;8.08;100.00
63715;BME280;49858;48.956;9.076;2023-02-22T00:26:52;98662.81;;;8.57;100.00
63715;BME280;49858;48.956;9.076;2023-02-22T00:29:21;98658.31;;;8.65;100.00
63715;BME280;49858;48.956;9.076;2023-02-22T00:31:50;98655.59;;;8.40;100.00
63715;BME280;49858;48.956;9.076;2023-02-22T00:34:18;98653.28;;;8.30;100.00
63715;BME280;49858;48.956;9.076;2023-02-22T00:36:46;98649.84;;;8.09;100.00
63715;BME280;49858;48.956;9.076;2023-02-22T00:39:16;98654.34;;;7.80;100.00
63715;BME280;49858;48.956;9.076;2023-02-22T00:41:44;98650.28;;;7.86;100.00
63715;BME280;49858;48.956;9.076;2023-02-22T00:44:11;98647.72;;;7.69;100.00
63715;BME280;49858;48.956;9.076;2023-02-22T00:46:40;98646.75;;;7.53;100.00
63715;BME280;49858;48.956;9.076;2023-02-22T00:49:10;98652.84;;;7.71;100.00
63715;BME280;49858;48.956;9.076;2023-02-22T00:51:37;98647.66;;;7.57;100.00
63715;BME280;49858;48.956;9.076;2023-02-22T00:54:06;98645.72;;;7.90;100.00
63715;BME280;49858;48.956;9.076;2023-02-22T00:56:35;98646.06;;;8.01;100.00
63715;BME280;49858;48.956;9.076;2023-02-22T00:59:03;98645.88;;;7.07;100.00
63715;BME280;49858;48.956;9.076;2023-02-22T01:01:31;98639.16;;;7.37;100.00
63715;BME280;49858;48.956;9.076;2023-02-22T01:03:59;98638.75;;;7.48;100.00
63715;BME280;49858;48.956;9.076;2023-02-22T01:06:27;98633.66;;;7.25;100.00
63715;BME280;49858;48.956;9.076;2023-02-22T01:08:57;98634.00;;;7.03;100.00
63715;BME280;49858;48.956;9.076;2023-02-22T01:11:24;98626.63;;;6.82;100.00
63715;BME280;49858;48.956;9.076;2023-02-22T01:13:54;98621.47;;;6.81;100.00
63715;BME280;49858;48.956;9.076;2023-02-22T01:16:23;98624.13;;;6.89;100.00
63715;BME280;49858;48.956;9.076;2023-02-22T01:18:51;98623.13;;;6.94;100.00
63715;BME280;49858;48.956;9.076;2023-02-22T01:21:19;98624.47;;;6.67;100.00
63715;BME280;49858;48.956;9.076;2023-02-22T01:23:46;98627.59;;;6.99;100.00
63715;BME280;49858;48.956;9.076;2023-02-22T01:26:14;98622.34;;;6.94;100.00
63715;BME280;49858;48.956;9.076;2023-02-22T01:28:42;98617.81;;;6.98;100.00
63715;BME280;49858;48.956;9.076;2023-02-22T01:31:11;98621.84;;;6.91;100.00
63715;BME280;49858;48.956;9.076;2023-02-22T01:33:42;98613.66;;;6.71;100.00
63715;BME280;49858;48.956;9.076;2023-02-22T01:36:10;98629.56;;;6.18;100.00
63715;BME280;49858;48.956;9.076;2023-02-22T01:38:38;98624.75;;;6.15;100.00
63715;BME280;49858;48.956;9.076;2023-02-22T01:41:06;98619.59;;;6.22;100.00
63715;BME280;49858;48.956;9.076;2023-02-22T01:43:35;98625.59;;;6.45;100.00
63715;BME280;49858;48.956;9.076;2023-02-22T01:46:04;98611.53;;;6.55;100.00
63715;BME280;49858;48.956;9.076;2023-02-22T01:48:40;98607.63;;;6.35;100.00
63715;BME280;49858;48.956;9.076;2023-02-22T01:51:13;98602.06;;;6.74;100.00
63715;BME280;49858;48.956;9.076;2023-02-22T01:53:47;98604.66;;;6.70;100.00
63715;BME280;49858;48.956;9.076;2023-02-22T01:56:18;98600.06;;;6.62;100.00
63715;BME280;49858;48.956;9.076;2023-02-22T01:58:49;98599.84;;;6.67;100.00
63715;BME280;49858;48.956;9.076;2023-02-22T02:01:19;98592.09;;;6.78;100.00
63715;BME280;49858;48.956;9.076;2023-02-22T02:03:51;98594.38;;;7.09;100.00
63715;BME280;49858;48.956;9.076;2023-02-22T02:06:25;98586.38;;;7.04;100.00
63715;BME280;49858;48.956;9.076;2023-02-22T02:08:57;98582.88;;;6.82;100.00
63715;BME280;49858;48.956;9.076;2023-02-22T02:11:28;98584.91;;;6.85;100.00
63715;BME280;49858;48.956;9.076;2023-02-22T02:13:58;98588.22;;;6.79;100.00
63715;BME280;49858;48.956;9.076;2023-02-22T02:16:33;98583.00;;;6.65;100.00
63715;BME280;49858;48.956;9.076;2023-02-22T02:19:08;98574.81;;;6.65;100.00
63715;BME280;49858;48.956;9.076;2023-02-22T02:21:44;98578.38;;;6.57;100.00
63715;BME280;49858;48.956;9.076;2023-02-22T02:24:42;98578.94;;;6.71;100.00
63715;BME280;49858;48.956;9.076;2023-02-22T02:27:18;98570.94;;;6.45;100.00
63715;BME280;49858;48.956;9.076;2023-02-22T02:30:03;98565.97;;;6.18;100.00
63715;BME280;49858;48.956;9.076;2023-02-22T02:32:50;98555.94;;;6.51;100.00
63715;BME280;49858;48.956;9.076;2023-02-22T02:35:27;98552.81;;;6.82;100.00
63715;BME280;49858;48.956;9.076;2023-02-22T02:38:01;98549.75;;;6.96;100.00
63715;BME280;49858;48.956;9.076;2023-02-22T02:40:38;98560.34;;;6.64;100.00
63715;BME280;49858;48.956;9.076;2023-02-22T02:43:14;98556.28;;;7.04;100.00
63715;BME280;49858;48.956;9.076;2023-02-22T02:45:50;98553.19;;;7.26;100.00
63715;BME280;49858;48.956;9.076;2023-02-22T02:48:25;98545.84;;;6.85;100.00
63715;BME280;49858;48.956;9.076;2023-02-22T02:50:57;98542.66;;;6.62;100.00
63715;BME280;49858;48.956;9.076;2023-02-22T02:53:32;98547.56;;;6.89;100.00
63715;BME280;49858;48.956;9.076;2023-02-22T02:56:01;98545.59;;;6.78;100.00
63715;BME280;49858;48.956;9.076;2023-02-22T02:58:29;98543.53;;;6.75;100.00
63715;BME280;49858;48.956;9.076;2023-02-22T03:00:59;98552.97;;;7.31;100.00
63715;BME280;49858;48.956;9.076;2023-02-22T03:03:50;98538.06;;;7.08;100.00
63715;BME280;49858;48.956;9.076;2023-02-22T03:07:01;98547.47;;;6.65;100.00
63715;BME280;49858;48.956;9.076;2023-02-22T03:09:39;98544.47;;;6.37;100.00
63715;BME280;49858;48.956;9.076;2023-02-22T03:12:18;98536.16;;;6.54;100.00
63715;BME280;49858;48.956;9.076;2023-02-22T03:14:53;98535.06;;;6.47;100.00
63715;BME280;49858;48.956;9.076;2023-02-22T03:17:37;98525.59;;;6.44;100.00
63715;BME280;49858;48.956;9.076;2023-02-22T03:20:11;98532.78;;;6.28;100.00
63715;BME280;49858;48.956;9.076;2023-02-22T03:22:47;98526.13;;;6.79;100.00
63715;BME280;49858;48.956;9.076;2023-02-22T03:25:23;98519.16;;;6.82;100.00
63715;BME280;49858;48.956;9.076;2023-02-22T03:28:01;98523.22;;;7.42;100.00
63715;BME280;49858;48.956;9.076;2023-02-22T03:30:34;98515.59;;;7.60;100.00
63715;BME280;49858;48.956;9.076;2023-02-22T03:33:08;98518.81;;;7.86;100.00
63715;BME280;49858;48.956;9.076;2023-02-22T03:35:42;98519.28;;;8.01;100.00
63715;BME280;49858;48.956;9.076;2023-02-22T03:38:16;98513.56;;;8.06;100.00
63715;BME280;49858;48.956;9.076;2023-02-22T03:40:50;98518.78;;;7.62;100.00
63715;BME280;49858;48.956;9.076;2023-02-22T03:43:24;98510.72;;;7.78;100.00
63715;BME280;49858;48.956;9.076;2023-02-22T03:45:57;98512.75;;;7.93;100.00
63715;BME280;49858;48.956;9.076;2023-02-22T03:48:35;98518.13;;;7.89;100.00
63715;BME280;49858;48.956;9.076;2023-02-22T03:51:07;98514.03;;;7.83;100.00
63715;BME280;49858;48.956;9.076;2023-02-22T03:53:35;98515.16;;;7.82;100.00
63715;BME280;49858;48.956;9.076;2023-02-22T03:56:07;98510.13;;;8.09;100.00
63715;BME280;49858;48.956;9.076;2023-02-22T03:58:37;98520.88;;;7.77;100.00
63715;BME280;49858;48.956;9.076;2023-02-22T04:01:10;98516.38;;;7.36;100.00
63715;BME280;49858;48.956;9.076;2023-02-22T04:03:38;98513.56;;;7.45;100.00
63715;BME280;49858;48.956;9.076;2023-02-22T04:06:09;98502.06;;;7.06;100.00
63715;BME280;49858;48.956;9.076;2023-02-22T04:08:37;98505.06;;;7.25;100.00
63715;BME280;49858;48.956;9.076;2023-02-22T04:11:06;98508.16;;;7.36;100.00
63715;BME280;49858;48.956;9.076;2023-02-22T04:13:33;98510.72;;;7.53;100.00
63715;BME280;49858;48.956;9.076;2023-02-22T04:16:04;98502.03;;;6.94;100.00
63715;BME280;49858;48.956;9.076;2023-02-22T04:18:32;98516.63;;;6.98;100.00
63715;BME280;49858;48.956;9.076;2023-02-22T04:21:00;98507.63;;;6.97;100.00
63715;BME280;49858;48.956;9.076;2023-02-22T04:23:49;98510.88;;;6.36;100.00
63715;BME280;49858;48.956;9.076;2023-02-22T04:26:17;98502.41;;;6.29;100.00
63715;BME280;49858;48.956;9.076;2023-02-22T04:28:50;98501.88;;;6.36;100.00
63715;BME280;49858;48.956;9.076;2023-02-22T04:31:21;98505.19;;;6.83;100.00
63715;BME280;49858;48.956;9.076;2023-02-22T04:33:51;98502.06;;;7.06;100.00
63715;BME280;49858;48.956;9.076;2023-02-22T04:36:23;98503.69;;;7.19;100.00
63715;BME280;49858;48.956;9.076;2023-02-22T04:38:53;98511.19;;;7.67;100.00
63715;BME280;49858;48.956;9.076;2023-02-22T04:41:21;98509.31;;;7.35;100.00
63715;BME280;49858;48.956;9.076;2023-02-22T04:43:51;98501.16;;;7.14;100.00
63715;BME280;49858;48.956;9.076;2023-02-22T04:46:21;98504.53;;;7.44;100.00
63715;BME280;49858;48.956;9.076;2023-02-22T04:48:51;98508.06;;;7.57;100.00
63715;BME280;49858;48.956;9.076;2023-02-22T04:51:21;98511.22;;;7.22;100.00
63715;BME280;49858;48.956;9.076;2023-02-22T04:54:02;98500.53;;;7.41;100.00
63715;BME280;49858;48.956;9.076;2023-02-22T04:56:32;98504.16;;;7.21;100.00
63715;BME280;49858;48.956;9.076;2023-02-22T04:59:00;98495.03;;;7.17;100.00
63715;BME280;49858;48.956;9.076;2023-02-22T05:01:30;98492.66;;;6.82;100.00
63715;BME280;49858;48.956;9.076;2023-02-22T05:04:00;98490.44;;;7.09;100.00
63715;BME280;49858;48.956;9.076;2023-02-22T05:06:29;98496.41;;;7.23;100.00
63715;BME280;49858;48.956;9.076;2023-02-22T05:08:57;98493.91;;;7.42;100.00
63715;BME280;49858;48.956;9.076;2023-02-22T05:11:28;98497.91;;;7.33;100.00
63715;BME280;49858;48.956;9.076;2023-02-22T05:13:56;98499.63;;;7.50;100.00
63715;BME280;49858;48.956;9.076;2023-02-22T05:16:24;98492.66;;;7.52;100.00
63715;BME280;49858;48.956;9.076;2023-02-22T05:18:51;98496.00;;;7.58;100.00
63715;BME280;49858;48.956;9.076;2023-02-22T05:21:19;98494.75;;;7.67;100.00
63715;BME280;49858;48.956;9.076;2023-02-22T05:23:49;98491.41;;;7.62;100.00
63715;BME280;49858;48.956;9.076;2023-02-22T05:26:17;98487.03;;;7.24;100.00
63715;BME280;49858;48.956;9.076;2023-02-22T05:28:46;98478.47;;;7.01;100.00
63715;BME280;49858;48.956;9.076;2023-02-22T05:31:14;98483.09;;;6.88;100.00
63715;BME280;49858;48.956;9.076;2023-02-22T05:33:43;98473.19;;;6.96;100.00
63715;BME280;49858;48.956;9.076;2023-02-22T05:36:11;98480.72;;;6.99;100.00
63715;BME280;49858;48.956;9.076;2023-02-22T05:38:38;98480.38;;;6.68;100.00
63715;BME280;49858;48.956;9.076;2023-02-22T05:41:09;98478.94;;;6.49;100.00
63715;BME280;49858;48.956;9.076;2023-02-22T05:43:38;98481.25;;;6.26;100.00
63715;BME280;49858;48.956;9.076;2023-02-22T05:46:07;98471.78;;;6.45;100.00
63715;BME280;49858;48.956;9.076;2023-02-22T05:48:35;98489.41;;;6.68;100.00
63715;BME280;49858;48.956;9.076;2023-02-22T05:51:03;98477.91;;;7.08;100.00
63715;BME280;49858;48.956;9.076;2023-02-22T05:53:31;98477.78;;;7.04;100.00
63715;BME280;49858;48.956;9.076;2023-02-22T05:55:58;98478.22;;;6.94;100.00
63715;BME280;49858;48.956;9.076;2023-02-22T05:58:26;98475.53;;;7.06;100.00
63715;BME280;49858;48.956;9.076;2023-02-22T06:00:54;98476.03;;;6.87;100.00
63715;BME280;49858;48.956;9.076;2023-02-22T06:03:23;98476.88;;;7.12;100.00
63715;BME280;49858;48.956;9.076;2023-02-22T06:05:51;98473.50;;;7.15;100.00
63715;BME280;49858;48.956;9.076;2023-02-22T06:08:19;98477.66;;;7.01;100.00
63715;BME280;49858;48.956;9.076;2023-02-22T06:10:47;98484.81;;;6.60;100.00
63715;BME280;49858;48.956;9.076;2023-02-22T06:13:15;98472.06;;;6.97;100.00
63715;BME280;49858;48.956;9.076;2023-02-22T06:15:42;98472.06;;;6.97;100.00
63715;BME280;49858;48.956;9.076;2023-02-22T06:18:10;98479.06;;;7.19;100.00
63715;BME280;49858;48.956;9.076;2023-02-22T06:20:39;98472.44;;;7.08;100.00
63715;BME280;49858;48.956;9.076;2023-02-22T06:23:07;98482.94;;;7.18;100.00
63715;BME280;49858;48.956;9.076;2023-02-22T06:25:35;98485.44;;;7.23;100.00
63715;BME280;49858;48.956;9.076;2023-02-22T06:28:03;98486.88;;;7.54;100.00
63715;BME280;49858;48.956;9.076;2023-02-22T06:30:31;98491.53;;;7.41;100.00
63715;BME280;49858;48.956;9.076;2023-02-22T06:32:59;98498.50;;;7.51;100.00
63715;BME280;49858;48.956;9.076;2023-02-22T06:35:27;98495.75;;;7.75;100.00
63715;BME280;49858;48.956;9.076;2023-02-22T06:37:56;98501.81;;;7.68;100.00
63715;BME280;49858;48.956;9.076;2023-02-22T06:40:24;98509.00;;;7.73;100.00
63715;BME280;49858;48.956;9.076;2023-02-22T06:42:54;98503.75;;;7.92;100.00
63715;BME280;49858;48.956;9.076;2023-02-22T06:45:22;98511.72;;;8.10;100.00
63715;BME280;49858;48.956;9.076;2023-02-22T06:47:50;98504.69;;;6.81;100.00
63715;BME280;49858;48.956;9.076;2023-02-22T06:50:21;98511.56;;;7.33;100.00
63715;BME280;49858;48.956;9.076;2023-02-22T06:52:49;98514.72;;;7.92;100.00
63715;BME280;49858;48.956;9.076;2023-02-22T06:55:20;98522.25;;;6.38;100.00
63715;BME280;49858;48.956;9.076;2023-02-22T06:57:48;98513.28;;;5.41;100.00
63715;BME280;49858;48.956;9.076;2023-02-22T07:00:18;98517.69;;;5.24;100.00
63715;BME280;49858;48.956;9.076;2023-02-22T07:02:47;98525.63;;;5.85;100.00
63715;BME280;49858;48.956;9.076;2023-02-22T07:05:17;98520.22;;;5.76;100.00
63715;BME280;49858;48.956;9.076;2023-02-22T07:07:46;98514.63;;;5.64;100.00
63715;BME280;49858;48.956;9.076;2023-02-22T07:10:20;98522.94;;;5.76;100.00
63715;BME280;49858;48.956;9.076;2023-02-22T07:12:48;98524.50;;;5.95;100.00
63715;BME280;49858;48.956;9.076;2023-02-22T07:15:18;98523.00;;;5.59;100.00
63715;BME280;49858;48.956;9.076;2023-02-22T07:17:48;98535.88;;;5.50;100.00
63715;BME280;49858;48.956;9.076;2023-02-22T07:20:16;98538.94;;;5.86;100.00
63715;BME280;49858;48.956;9.076;2023-02-22T07:22:46;98536.63;;;6.06;100.00
63715;BME280;49858;48.956;9.076;2023-02-22T07:25:14;98536.53;;;6.23;100.00
63715;BME280;49858;48.956;9.076;2023-02-22T07:27:44;98532.88;;;6.40;100.00
63715;BME280;49858;48.956;9.076;2023-02-22T07:30:16;98536.75;;;6.60;100.00
63715;BME280;49858;48.956;9.076;2023-02-22T07:32:48;98547.78;;;6.22;100.00
63715;BME280;49858;48.956;9.076;2023-02-22T07:35:17;98541.66;;;5.57;100.00
63715;BME280;49858;48.956;9.076;2023-02-22T07:37:45;98546.19;;;5.44;100.00
63715;BME280;49858;48.956;9.076;2023-02-22T07:40:15;98549.81;;;5.10;100.00
63715;BME280;49858;48.956;9.076;2023-02-22T07:42:56;98554.47;;;5.01;100.00
63715;BME280;49858;48.956;9.076;2023-02-22T07:45:26;98552.25;;;6.47;100.00
63715;BME280;49858;48.956;9.076;2023-02-22T07:47:54;98549.56;;;6.18;100.00
63715;BME280;49858;48.956;9.076;2023-02-22T07:50:24;98549.50;;;5.97;100.00
63715;BME280;49858;48.956;9.076;2023-02-22T07:52:56;98550.50;;;5.92;100.00
63715;BME280;49858;48.956;9.076;2023-02-22T07:55:26;98549.81;;;6.04;100.00
63715;BME280;49858;48.956;9.076;2023-02-22T07:57:57;98548.78;;;6.17;100.00
63715;BME280;49858;48.956;9.076;2023-02-22T08:00:29;98554.13;;;6.55;100.00
63715;BME280;49858;48.956;9.076;2023-02-22T08:02:58;98548.22;;;7.65;100.00
63715;BME280;49858;48.956;9.076;2023-02-22T08:05:27;98543.97;;;6.98;100.00
63715;BME280;49858;48.956;9.076;2023-02-22T08:07:56;98536.47;;;7.40;100.00
63715;BME280;49858;48.956;9.076;2023-02-22T08:10:25;98542.19;;;7.14;100.00
63715;BME280;49858;48.956;9.076;2023-02-22T08:12:54;98544.22;;;7.50;100.00
63715;BME280;49858;48.956;9.076;2023-02-22T08:15:24;98542.91;;;6.90;100.00
63715;BME280;49858;48.956;9.076;2023-02-22T08:17:54;98544.91;;;6.18;100.00
63715;BME280;49858;48.956;9.076;2023-02-22T08:20:22;98541.72;;;6.58;100.00
63715;BME280;49858;48.956;9.076;2023-02-22T08:22:50;98537.06;;;6.79;100.00
63715;BME280;49858;48.956;9.076;2023-02-22T08:25:19;98536.88;;;6.43;100.00
63715;BME280;49858;48.956;9.076;2023-02-22T08:27:47;98539.59;;;6.43;100.00
63715;BME280;49858;48.956;9.076;2023-02-22T08:30:20;98543.94;;;6.64;100.00
63715;BME280;49858;48.956;9.076;2023-02-22T08:32:49;98536.00;;;6.72;100.00
63715;BME280;49858;48.956;9.076;2023-02-22T08:35:19;98537.59;;;7.39;100.00
63715;BME280;49858;48.956;9.076;2023-02-22T08:37:51;98538.94;;;7.33;100.00
63715;BME280;49858;48.956;9.076;2023-02-22T08:40:31;98535.81;;;7.67;100.00
63715;BME280;49858;48.956;9.076;2023-02-22T08:43:09;98531.47;;;7.54;100.00
63715;BME280;49858;48.956;9.076;2023-02-22T08:45:43;98524.44;;;9.55;100.00
63715;BME280;49858;48.956;9.076;2023-02-22T08:48:14;98535.69;;;8.25;100.00
63715;BME280;49858;48.956;9.076;2023-02-22T08:50:43;98530.50;;;9.16;100.00
63715;BME280;49858;48.956;9.076;2023-02-22T08:53:13;98520.78;;;10.14;100.00
63715;BME280;49858;48.956;9.076;2023-02-22T08:55:47;98524.91;;;10.23;100.00
63715;BME280;49858;48.956;9.076;2023-02-22T08:58:20;98527.91;;;10.69;100.00
63715;BME280;49858;48.956;9.076;2023-02-22T09:00:57;98524.53;;;9.90;100.00
63715;BME280;49858;48.956;9.076;2023-02-22T09:03:25;98521.69;;;10.92;100.00
63715;BME280;49858;48.956;9.076;2023-02-22T09:05:55;98529.03;;;9.35;100.00
63715;BME280;49858;48.956;9.076;2023-02-22T09:08:25;98532.94;;;8.25;100.00
63715;BME280;49858;48.956;9.076;2023-02-22T09:10:55;98527.19;;;9.70;100.00
63715;BME280;49858;48.956;9.076;2023-02-22T09:13:24;98523.44;;;11.65;100.00
63715;BME280;49858;48.956;9.076;2023-02-22T09:15:54;98519.69;;;11.31;100.00
63715;BME280;49858;48.956;9.076;2023-02-22T09:18:26;98514.97;;;12.27;100.00
63715;BME280;49858;48.956;9.076;2023-02-22T09:21:08;98515.59;;;13.81;100.00
63715;BME280;49858;48.956;9.076;2023-02-22T09:23:37;98510.22;;;14.54;100.00
63715;BME280;49858;48.956;9.076;2023-02-22T09:26:09;98512.25;;;14.72;100.00
63715;BME280;49858;48.956;9.076;2023-02-22T09:28:39;98502.69;;;15.78;94.03
63715;BME280;49858;48.956;9.076;2023-02-22T09:31:08;98508.03;;;14.30;100.00
63715;BME280;49858;48.956;9.076;2023-02-22T09:33:36;98506.84;;;15.04;97.64
63715;BME280;49858;48.956;9.076;2023-02-22T09:36:05;98512.09;;;14.43;100.00
63715;BME280;49858;48.956;9.076;2023-02-22T09:38:33;98505.44;;;15.67;93.42
63715;BME280;49858;48.956;9.076;2023-02-22T09:41:09;98494.72;;;16.16;89.35
63715;BME280;49858;48.956;9.076;2023-02-22T09:43:46;98499.09;;;15.84;88.80
63715;BME280;49858;48.956;9.076;2023-02-22T09:46:27;98508.50;;;16.66;86.68
63715;BME280;49858;48.956;9.076;2023-02-22T09:49:01;98500.19;;;16.51;86.24
63715;BME280;49858;48.956;9.076;2023-02-22T09:51:35;98500.31;;;15.76;91.71
63715;BME280;49858;48.956;9.076;2023-02-22T09:54:12;98494.28;;;16.35;86.13
63715;BME280;49858;48.956;9.076;2023-02-22T09:56:51;98493.03;;;16.72;86.17
63715;BME280;49858;48.956;9.076;2023-02-22T09:59:25;98493.81;;;16.72;82.99
63715;BME280;49858;48.956;9.076;2023-02-22T10:02:01;98484.81;;;15.43;87.58
63715;BME280;49858;48.956;9.076;2023-02-22T10:04:43;98492.66;;;15.23;96.35
63715;BME280;49858;48.956;9.076;2023-02-22T10:07:21;98489.44;;;16.64;86.73
63715;BME280;49858;48.956;9.076;2023-02-22T10:09:52;98492.66;;;17.47;83.13
63715;BME280;49858;48.956;9.076;2023-02-22T10:12:29;98486.66;;;16.78;84.76
63715;BME280;49858;48.956;9.076;2023-02-22T10:15:17;98491.09;;;17.46;81.25
63715;BME280;49858;48.956;9.076;2023-02-22T10:18:00;98489.13;;;17.95;77.62
63715;BME280;49858;48.956;9.076;2023-02-22T10:20:41;98483.34;;;18.20;73.91
63715;BME280;49858;48.956;9.076;2023-02-22T10:23:22;98483.25;;;17.85;78.84
63715;BME280;49858;48.956;9.076;2023-02-22T10:25:57;98476.19;;;18.56;75.94
63715;BME280;49858;48.956;9.076;2023-02-22T10:28:34;98473.59;;;18.38;75.07
63715;BME280;49858;48.956;9.076;2023-02-22T10:31:19;98477.63;;;18.34;76.76
63715;BME280;49858;48.956;9.076;2023-02-22T10:33:54;98476.53;;;15.97;86.08
63715;BME280;49858;48.956;9.076;2023-02-22T10:36:26;98474.25;;;13.99;99.82
63715;BME280;49858;48.956;9.076;2023-02-22T10:38:58;98468.66;;;13.92;100.00
63715;BME280;49858;48.956;9.076;2023-02-22T10:41:29;98471.31;;;15.31;92.66
63715;BME280;49858;48.956;9.076;2023-02-22T10:43:57;98472.63;;;14.53;99.83
63715;BME280;49858;48.956;9.076;2023-02-22T10:46:27;98471.38;;;17.19;85.57
63715;BME280;49858;48.956;9.076;2023-02-22T10:49:00;98460.66;;;15.76;88.00
63715;BME280;49858;48.956;9.076;2023-02-22T10:51:29;98466.94;;;17.32;82.31
63715;BME280;49858;48.956;9.076;2023-02-22T10:54:09;98448.34;;;18.56;74.58
63715;BME280;49858;48.956;9.076;2023-02-22T10:56:55;98453.34;;;19.57;73.89
63715;BME280;49858;48.956;9.076;2023-02-22T10:59:28;98448.63;;;18.69;75.34
63715;BME280;49858;48.956;9.076;2023-02-22T11:02:15;98448.00;;;20.16;70.79
63715;BME280;49858;48.956;9.076;2023-02-22T11:04:50;98450.88;;;21.12;65.26
63715;BME280;49858;48.956;9.076;2023-02-22T11:07:23;98446.16;;;19.59;68.45
63715;BME280;49858;48.956;9.076;2023-02-22T11:09:54;98445.56;;;20.62;68.28
63715;BME280;49858;48.956;9.076;2023-02-22T11:12:37;98448.22;;;20.89;64.24
63715;BME280;49858;48.956;9.076;2023-02-22T11:15:25;98441.28;;;21.13;60.28
63715;BME280;49858;48.956;9.076;2023-02-22T11:17:55;98445.09;;;20.83;62.10
63715;BME280;49858;48.956;9.076;2023-02-22T11:20:29;98443.78;;;22.09;60.14
63715;BME280;49858;48.956;9.076;2023-02-22T11:23:03;98433.97;;;21.36;62.30
63715;BME280;49858;48.956;9.076;2023-02-22T11:25:38;98433.75;;;22.12;59.11
63715;BME280;49858;48.956;9.076;2023-02-22T11:28:14;98433.84;;;23.08;53.24
63715;BME280;49858;48.956;9.076;2023-02-22T11:30:50;98432.28;;;23.07;51.34
63715;BME280;49858;48.956;9.076;2023-02-22T11:33:25;98419.16;;;23.30;51.17
63715;BME280;49858;48.956;9.076;2023-02-22T11:36:06;98420.59;;;23.73;49.47
63715;BME280;49858;48.956;9.076;2023-02-22T11:38:53;98411.63;;;24.12;48.07
63715;BME280;49858;48.956;9.076;2023-02-22T11:41:26;98411.03;;;24.52;46.44
63715;BME280;49858;48.956;9.076;2023-02-22T11:44:13;98422.09;;;23.99;47.84
63715;BME280;49858;48.956;9.076;2023-02-22T11:46:47;98401.00;;;23.94;48.40
63715;BME280;49858;48.956;9.076;2023-02-22T11:49:16;98410.22;;;24.30;44.49
63715;BME280;49858;48.956;9.076;2023-02-22T11:51:59;98401.38;;;23.84;47.88
63715;BME280;49858;48.956;9.076;2023-02-22T11:54:52;98399.44;;;24.94;45.15
63715;BME280;49858;48.956;9.076;2023-02-22T11:57:37;98398.03;;;22.45;50.48
63715;BME280;49858;48.956;9.076;2023-02-22T12:00:21;98389.84;;;23.05;50.34
63715;BME280;49858;48.956;9.076;2023-02-22T12:03:16;98396.13;;;23.35;46.55
63715;BME280;49858;48.956;9.076;2023-02-22T12:05:57;98380.66;;;22.63;50.10
63715;BME280;49858;48.956;9.076;2023-02-22T12:08:43;98375.16;;;23.27;49.47
63715;BME280;49858;48.956;9.076;2023-02-22T12:11:17;98367.63;;;23.36;47.20
63715;BME280;49858;48.956;9.076;2023-02-22T12:14:03;98385.09;;;21.89;53.21
63715;BME280;49858;48.956;9.076;2023-02-22T12:16:48;98366.50;;;21.95;51.39
63715;BME280;49858;48.956;9.076;2023-02-22T12:19:28;98369.66;;;21.52;53.91
63715;BME280;49858;48.956;9.076;2023-02-22T12:21:59;98369.75;;;20.96;55.85
63715;BME280;49858;48.956;9.076;2023-02-22T12:24:35;98365.81;;;20.57;62.99
63715;BME280;49858;48.956;9.076;2023-02-22T12:27:07;98364.41;;;20.46;62.44
63715;BME280;49858;48.956;9.076;2023-02-22T12:29:40;98372.59;;;20.76;62.01
63715;BME280;49858;48.956;9.076;2023-02-22T12:32:13;98359.06;;;21.43;59.67
63715;BME280;49858;48.956;9.076;2023-02-22T12:34:45;98367.00;;;21.45;59.57
63715;BME280;49858;48.956;9.076;2023-02-22T12:37:17;98370.31;;;21.24;60.89
63715;BME280;49858;48.956;9.076;2023-02-22T12:39:58;98371.88;;;21.25;62.13
63715;BME280;49858;48.956;9.076;2023-02-22T12:42:42;98368.50;;;20.81;60.23
63715;BME280;49858;48.956;9.076;2023-02-22T12:45:18;98368.97;;;20.96;62.00
63715;BME280;49858;48.956;9.076;2023-02-22T12:47:54;98365.41;;;21.11;62.08
63715;BME280;49858;48.956;9.076;2023-02-22T12:50:25;98355.69;;;21.00;62.84
63715;BME280;49858;48.956;9.076;2023-02-22T12:52:57;98357.19;;;20.08;69.44
63715;BME280;49858;48.956;9.076;2023-02-22T12:55:36;98355.66;;;20.47;66.31
63715;BME280;49858;48.956;9.076;2023-02-22T12:58:08;98362.19;;;20.77;64.89
63715;BME280;49858;48.956;9.076;2023-02-22T13:00:45;98358.75;;;20.69;67.17
63715;BME280;49858;48.956;9.076;2023-02-22T13:03:28;98355.09;;;21.25;64.36
63715;BME280;49858;48.956;9.076;2023-02-22T13:06:06;98361.38;;;21.78;61.88
63715;BME280;49858;48.956;9.076;2023-02-22T13:08:40;98350.03;;;21.68;63.31
63715;BME280;49858;48.956;9.076;2023-02-22T13:11:16;98343.81;;;22.06;61.77
63715;BME280;49858;48.956;9.076;2023-02-22T13:14:02;98348.72;;;21.40;60.70
63715;BME280;49858;48.956;9.076;2023-02-22T13:16:44;98340.97;;;22.52;56.35
63715;BME280;49858;48.956;9.076;2023-02-22T13:19:27;98352.13;;;23.32;55.10
63715;BME280;49858;48.956;9.076;2023-02-22T13:22:04;98346.78;;;22.57;55.78
63715;BME280;49858;48.956;9.076;2023-02-22T13:24:42;98341.06;;;22.48;55.64
63715;BME280;49858;48.956;9.076;2023-02-22T13:27:18;98348.63;;;21.77;57.17
63715;BME280;49858;48.956;9.076;2023-02-22T13:29:50;98341.22;;;19.65;69.35